Time;durP1;ratioP1;P1;durP2;ratioP2;P2;SDS_P1;SDS_P2;PMS_P1;PMS_P2;Temp;Humidity;BMP_temperature;BMP_pressure;BME280_temperature;BME280_humidity;BME280_pressure;Samples;Min_cycle;Max_cycle;Signal;HPM_P1;HPM_P2
2022/11/29 00:00:05;;;;;;;27.13;17.47;;;;;;;6.47;100.00;101330.44;5294149;28;20036;-68
2022/11/29 00:02:37;;;;;;;24.37;17.40;;;;;;;6.37;100.00;101324.72;5295706;28;20038;-69
2022/11/29 00:05:08;;;;;;;23.80;17.43;;;;;;;6.39;100.00;101321.16;5290673;28;20479;-68
2022/11/29 00:07:39;;;;;;;31.67;19.77;;;;;;;6.47;100.00;101330.44;5292532;28;20762;-68
2022/11/29 00:10:10;;;;;;;26.23;17.83;;;;;;;6.44;100.00;101323.56;5289957;28;20086;-68
2022/11/29 00:12:42;;;;;;;27.13;18.03;;;;;;;6.52;100.00;101325.94;5296555;28;20038;-68
2022/11/29 00:15:14;;;;;;;27.47;17.80;;;;;;;6.52;100.00;101324.19;5284516;28;20444;-68
2022/11/29 00:17:45;;;;;;;27.03;18.07;;;;;;;6.49;100.00;101329.47;5291734;28;20024;-68
2022/11/29 00:20:16;;;;;;;29.17;18.63;;;;;;;6.41;100.00;101332.34;5286797;28;20932;-69
2022/11/29 00:22:47;;;;;;;30.30;18.47;;;;;;;6.40;100.00;101335.00;5288991;28;20559;-68
2022/11/29 00:25:19;;;;;;;24.63;17.50;;;;;;;6.34;100.00;101338.66;5294007;28;20032;-68
2022/11/29 00:27:50;;;;;;;31.70;18.67;;;;;;;6.42;100.00;101335.81;5292418;28;20027;-68
2022/11/29 00:30:22;;;;;;;26.40;18.87;;;;;;;6.40;100.00;101345.41;5289966;28;20024;-68
2022/11/29 00:32:53;;;;;;;30.23;19.37;;;;;;;6.41;100.00;101336.69;5295757;28;20036;-68
2022/11/29 00:35:24;;;;;;;23.77;18.07;;;;;;;6.50;100.00;101340.75;5295006;28;20028;-69
2022/11/29 00:37:56;;;;;;;28.53;16.73;;;;;;;6.53;100.00;101338.88;5296512;28;20051;-68
2022/11/29 00:40:27;;;;;;;24.27;18.37;;;;;;;6.56;100.00;101347.50;5294186;28;20426;-68
2022/11/29 00:42:58;;;;;;;27.47;16.53;;;;;;;6.37;100.00;101345.53;5292593;28;20067;-68
2022/11/29 00:45:29;;;;;;;24.57;16.67;;;;;;;6.44;100.00;101341.78;5295896;28;20716;-68
2022/11/29 00:48:01;;;;;;;26.00;17.03;;;;;;;6.41;100.00;101344.50;5294757;28;20081;-69
2022/11/29 00:50:32;;;;;;;29.00;18.90;;;;;;;6.33;100.00;101334.38;5295990;28;20382;-68
2022/11/29 00:53:03;;;;;;;32.40;18.33;;;;;;;6.37;100.00;101330.75;5296638;28;20034;-68
2022/11/29 00:55:34;;;;;;;33.17;19.30;;;;;;;6.21;100.00;101327.84;5295227;28;20089;-68
2022/11/29 00:58:06;;;;;;;31.57;18.40;;;;;;;6.32;100.00;101332.66;5296401;28;20035;-68
2022/11/29 01:00:37;;;;;;;41.30;19.13;;;;;;;6.35;100.00;101331.72;5295590;28;20040;-69
2022/11/29 01:03:09;;;;;;;35.07;19.27;;;;;;;6.49;100.00;101334.69;5293297;28;20085;-69
2022/11/29 01:05:41;;;;;;;34.97;17.57;;;;;;;6.47;100.00;101339.13;5296048;28;20017;-69
2022/11/29 01:08:13;;;;;;;25.37;18.17;;;;;;;6.33;100.00;101325.72;5295780;28;20068;-69
2022/11/29 01:10:44;;;;;;;35.83;19.07;;;;;;;6.24;100.00;101335.53;5294413;28;20052;-69
2022/11/29 01:13:15;;;;;;;34.43;20.07;;;;;;;6.26;100.00;101340.69;5295684;28;20036;-69
2022/11/29 01:15:54;;;;;;;28.47;19.30;;;;;;;6.33;100.00;101341.31;5294937;28;20064;-69
2022/11/29 01:18:26;;;;;;;32.60;20.37;;;;;;;6.23;100.00;101340.78;5294368;28;20036;-69
2022/11/29 01:21:04;;;;;;;34.97;20.00;;;;;;;6.26;100.00;101343.28;5295348;28;20047;-69
2022/11/29 01:23:37;;;;;;;35.40;20.33;;;;;;;6.19;100.00;101344.38;5294132;28;20125;-69
2022/11/29 01:26:16;;;;;;;38.13;19.73;;;;;;;6.20;100.00;101348.69;5295620;28;20046;-69
2022/11/29 01:28:50;;;;;;;31.83;18.53;;;;;;;6.19;100.00;101345.25;5295477;28;20052;-69
2022/11/29 01:31:27;;;;;;;24.03;16.57;;;;;;;6.31;100.00;101354.38;5295288;28;20107;-69
2022/11/29 01:34:01;;;;;;;27.37;18.17;;;;;;;6.38;100.00;101350.69;5294490;28;20078;-69
2022/11/29 01:36:33;;;;;;;28.90;19.13;;;;;;;6.21;100.00;101347.78;5295263;28;20032;-68
2022/11/29 01:39:05;;;;;;;33.03;19.33;;;;;;;6.11;100.00;101342.06;5294022;28;20028;-69
2022/11/29 01:41:36;;;;;;;33.10;18.97;;;;;;;6.10;100.00;101343.78;5293551;28;20028;-69
2022/11/29 01:44:11;;;;;;;30.27;18.57;;;;;;;6.16;100.00;101359.19;5295262;28;20131;-69
2022/11/29 01:46:44;;;;;;;32.60;19.52;;;;;;;6.14;100.00;101358.38;5282945;28;20107;-69
2022/11/29 01:49:18;;;;;;;30.27;20.03;;;;;;;6.34;100.00;101371.63;5294497;28;20018;-69
2022/11/29 01:51:54;;;;;;;34.83;20.92;;;;;;;6.35;100.00;101365.53;5281232;28;20062;-69
2022/11/29 01:54:27;;;;;;;46.37;22.50;;;;;;;6.37;100.00;101374.16;5294825;28;20478;-69
2022/11/29 01:56:59;;;;;;;44.00;20.53;;;;;;;6.43;100.00;101378.28;5295580;28;20024;-69
2022/11/29 01:59:31;;;;;;;37.97;19.80;;;;;;;6.43;100.00;101378.28;5294192;28;20473;-68
2022/11/29 02:02:08;;;;;;;50.57;23.83;;;;;;;6.45;100.00;101382.53;5282983;28;20016;-69
2022/11/29 02:04:44;;;;;;;37.00;21.67;;;;;;;6.43;100.00;101383.47;5293229;28;20028;-69
2022/11/29 02:07:15;;;;;;;45.40;21.77;;;;;;;6.43;100.00;101388.69;5294560;28;20406;-69
2022/11/29 02:09:47;;;;;;;43.93;22.20;;;;;;;6.42;100.00;101382.66;5298154;28;20024;-69
2022/11/29 02:12:18;;;;;;;61.50;23.63;;;;;;;6.25;100.00;101399.66;5297424;28;20031;-69
2022/11/29 02:15:16;;;;;;;48.50;23.73;;;;;;;6.43;100.00;101393.88;5273483;22;20054;-68
2022/11/29 02:18:05;;;;;;;44.40;21.13;;;;;;;6.33;100.00;101390.75;5220084;28;20057;-69
2022/11/29 02:21:08;;;;;;;38.37;20.83;;;;;;;6.43;100.00;101405.16;5224845;28;20032;-69
2022/11/29 02:23:42;;;;;;;54.80;23.43;;;;;;;6.41;100.00;101401.75;5221909;28;20034;-68
2022/11/29 02:26:35;;;;;;;37.15;20.73;;;;;;;6.43;100.00;101405.16;5230600;28;20543;-69
2022/11/29 02:29:25;;;;;;;53.37;20.97;;;;;;;6.39;100.00;101398.34;5216187;28;20423;-69
2022/11/29 02:32:22;;;;;;;82.90;20.93;;;;;;;6.36;100.00;101394.09;5211327;28;20046;-69
2022/11/29 02:35:02;;;;;;;49.53;21.20;;;;;;;6.40;100.00;101402.66;5212803;28;20483;-69
2022/11/29 02:37:53;;;;;;;46.27;21.77;;;;;;;6.39;100.00;101403.53;5219596;28;20057;-68
2022/11/29 02:40:49;;;;;;;45.33;20.27;;;;;;;6.34;100.00;101398.50;5213765;28;20029;-69
2022/11/29 02:43:35;;;;;;;36.80;21.13;;;;;;;6.38;100.00;101394.06;5224997;28;20395;-69
2022/11/29 02:46:28;;;;;;;42.57;19.77;;;;;;;6.43;100.00;101393.88;5230110;28;20471;-69
2022/11/29 02:49:27;;;;;;;38.23;22.03;;;;;;;6.47;100.00;101398.09;5220458;28;20037;-68
2022/11/29 02:52:01;;;;;;;43.90;20.40;;;;;;;6.39;100.00;101398.34;5232475;28;20222;-69
2022/11/29 02:54:40;;;;;;;28.13;19.92;;;;;;;6.46;100.00;101399.84;5233544;28;20503;-69
2022/11/29 02:57:25;;;;;;;46.67;19.87;;;;;;;6.47;100.00;101406.78;5231825;28;20029;-68
2022/11/29 03:00:20;;;;;;;31.67;18.88;;;;;;;6.49;100.00;101410.16;5233957;28;20025;-69
2022/11/29 03:03:33;;;;;;;41.70;20.15;;;;;;;6.49;100.00;101411.91;5232845;28;20035;-69
2022/11/29 03:06:05;;;;;;;30.33;18.13;;;;;;;6.37;100.00;101411.41;5224520;28;20049;-69
2022/11/29 03:08:44;;;;;;;39.80;19.47;;;;;;;6.42;100.00;101413.88;5234121;28;20711;-69
2022/11/29 03:11:41;;;;;;;46.40;19.53;;;;;;;6.43;100.00;101414.72;5232515;28;20075;-68
2022/11/29 03:14:29;;;;;;;42.07;18.83;;;;;;;6.45;100.00;101421.56;5232331;28;20132;-68
2022/11/29 03:17:22;;;;;;;31.20;18.13;;;;;;;6.39;100.00;101426.97;5233553;28;20014;-69
2022/11/29 03:20:05;;;;;;;48.00;19.30;;;;;;;6.21;100.00;101424.09;5232460;28;20461;-68
2022/11/29 03:23:06;;;;;;;25.00;16.83;;;;;;;6.32;100.00;101428.09;5224045;28;20256;-69
2022/11/29 03:25:52;;;;;;;20.57;17.73;;;;;;;6.29;100.00;101437.69;5228810;28;20357;-69
2022/11/29 03:28:33;;;;;;;21.00;17.73;;;;;;;6.29;100.00;101435.09;5221012;28;20079;-68
2022/11/29 03:31:19;;;;;;;47.57;16.60;;;;;;;6.18;100.00;101434.56;5232400;28;20458;-69
2022/11/29 03:34:19;;;;;;;24.77;15.20;;;;;;;6.19;100.00;101441.47;5227599;28;20068;-68
2022/11/29 03:37:14;;;;;;;42.37;15.70;;;;;;;6.10;100.00;101440.03;5226782;28;20041;-69
2022/11/29 03:40:06;;;;;;;28.75;15.90;;;;;;;6.05;100.00;101441.91;5222111;28;20033;-69
2022/11/29 03:42:47;;;;;;;24.37;15.50;;;;;;;6.05;100.00;101447.97;5215298;28;20033;-69
2022/11/29 03:45:33;;;;;;;33.20;15.40;;;;;;;6.03;100.00;101456.69;5231350;28;20061;-69
2022/11/29 03:48:12;;;;;;;36.53;15.13;;;;;;;5.94;100.00;101450.00;5230815;28;20033;-69
2022/11/29 03:50:52;;;;;;;68.30;15.63;;;;;;;5.81;100.00;101450.38;5228600;28;20038;-69
2022/11/29 03:53:42;;;;;;;26.53;15.23;;;;;;;5.93;100.00;101458.72;5227388;28;20040;-69
2022/11/29 03:56:34;;;;;;;23.17;14.83;;;;;;;5.91;100.00;101463.97;5230756;28;20038;-68
2022/11/29 03:59:27;;;;;;;25.43;14.63;;;;;;;5.88;100.00;101464.03;5229411;28;20029;-69
2022/11/29 04:02:29;;;;;;;33.07;14.80;;;;;;;5.91;100.00;101479.56;5231654;28;20033;-69
2022/11/29 04:05:15;;;;;;;43.77;13.87;;;;;;;5.87;100.00;101470.16;5226313;28;20072;-69
2022/11/29 04:07:59;;;;;;;68.17;14.33;;;;;;;5.74;100.00;101480.03;5223022;28;20060;-69
2022/11/29 04:10:47;;;;;;;60.63;15.57;;;;;;;5.77;100.00;101477.38;5234334;28;20029;-69
2022/11/29 04:13:48;;;;;;;49.77;14.17;;;;;;;5.77;100.00;101479.97;5234083;28;20140;-69
2022/11/29 04:16:30;;;;;;;39.03;14.43;;;;;;;5.92;100.00;101480.41;5234787;28;20038;-69
2022/11/29 04:19:07;;;;;;;47.20;15.00;;;;;;;5.87;100.00;101487.47;5232710;28;20183;-69
2022/11/29 04:21:41;;;;;;;54.20;14.70;;;;;;;5.79;100.00;101483.38;5234776;28;20474;-69
2022/11/29 04:24:18;;;;;;;36.50;14.40;;;;;;;5.89;100.00;101488.28;5230509;28;20025;-69
2022/11/29 04:27:14;;;;;;;56.70;14.30;;;;;;;5.90;100.00;101490.84;5233021;28;20121;-69
2022/11/29 04:30:07;;;;;;;71.90;14.87;;;;;;;5.89;100.00;101488.28;5225278;28;20481;-69
2022/11/29 04:33:02;;;;;;;89.13;15.20;;;;;;;5.86;100.00;101484.06;5233646;28;20104;-69
2022/11/29 04:36:04;;;;;;;52.13;13.70;;;;;;;5.86;100.00;101489.25;5234181;28;20029;-69
2022/11/29 04:38:47;;;;;;;52.23;14.23;;;;;;;5.76;100.00;101480.84;5223973;28;20396;-69
2022/11/29 04:41:48;;;;;;;75.70;14.73;;;;;;;5.78;100.00;101493.81;5226748;28;20091;-69
2022/11/29 04:44:39;;;;;;;45.13;13.77;;;;;;;5.76;100.00;101493.03;5221304;28;20037;-69
2022/11/29 04:47:26;;;;;;;62.20;13.57;;;;;;;5.76;100.00;101493.84;5233287;28;20029;-69
2022/11/29 04:50:21;;;;;;;53.10;14.50;;;;;;;5.72;100.00;101492.25;5232272;28;20030;-68
2022/11/29 04:53:08;;;;;;;49.50;13.85;;;;;;;5.74;100.00;101493.03;5228825;28;20500;-69
2022/11/29 04:55:55;;;;;;;35.90;13.03;;;;;;;5.71;100.00;101500.94;5229051;28;20035;-69
2022/11/29 04:58:39;;;;;;;58.17;12.40;;;;;;;5.56;100.00;101505.69;5237537;28;20041;-69
2022/11/29 05:01:31;;;;;;;60.67;13.40;;;;;;;5.50;100.00;101495.44;5233549;28;20038;-69
2022/11/29 05:04:30;;;;;;;37.73;13.70;;;;;;;5.66;100.00;101508.00;5232725;28;20382;-69
2022/11/29 05:07:20;;;;;;;50.87;12.87;;;;;;;5.64;100.00;101509.78;5232819;28;20029;-69
2022/11/29 05:10:05;;;;;;;50.33;13.47;;;;;;;5.67;100.00;101510.56;5232975;28;20509;-69
2022/11/29 05:12:53;;;;;;;43.33;13.85;;;;;;;5.65;100.00;101516.72;5219622;28;20120;-69
2022/11/29 05:15:59;;;;;;;23.13;13.07;;;;;;;5.71;100.00;101532.13;5231032;28;21642;-69
2022/11/29 05:18:56;;;;;;;49.40;13.60;;;;;;;5.73;100.00;101527.72;5232170;28;20037;-69
2022/11/29 05:21:40;;;;;;;40.03;13.93;;;;;;;5.70;100.00;101525.22;5226817;28;20184;-69
2022/11/29 05:24:27;;;;;;;37.63;13.35;;;;;;;5.68;100.00;101535.66;5229219;28;20033;-69
2022/11/29 05:26:58;;;;;;;64.27;13.80;;;;;;;5.41;100.00;101545.06;5231442;28;20029;-68
2022/11/29 05:29:31;;;;;;;56.13;13.97;;;;;;;5.45;100.00;101544.94;5231855;28;20037;-69
2022/11/29 05:32:28;;;;;;;35.23;12.83;;;;;;;5.50;100.00;101542.22;5233294;28;20021;-69
2022/11/29 05:35:23;;;;;;;54.07;14.17;;;;;;;5.36;100.00;101544.34;5226300;28;20065;-69
2022/11/29 05:38:00;;;;;;;55.87;14.37;;;;;;;5.59;100.00;101553.25;5229995;28;20460;-69
2022/11/29 05:41:00;;;;;;;49.03;12.97;;;;;;;5.45;100.00;101557.06;5228994;28;20071;-68
2022/11/29 05:44:04;;;;;;;39.57;14.33;;;;;;;5.60;100.00;101560.16;5232104;28;20037;-69
2022/11/29 05:46:47;;;;;;;44.37;13.43;;;;;;;5.40;100.00;101564.13;5220430;28;20054;-69
2022/11/29 05:49:28;;;;;;;119.90;15.03;;;;;;;5.41;100.00;101565.88;5227076;28;20049;-70
2022/11/29 05:52:23;;;;;;;61.80;14.33;;;;;;;5.40;100.00;101574.53;5229007;28;20053;-70
2022/11/29 05:55:12;;;;;;;46.10;13.85;;;;;;;5.35;100.00;101572.06;5232421;28;20041;-70
2022/11/29 05:58:02;;;;;;;22.00;13.13;;;;;;;5.57;100.00;101574.06;5231100;28;20045;-69
2022/11/29 06:00:46;;;;;;;45.07;15.30;;;;;;;5.50;100.00;101576.00;5225659;28;20028;-69
2022/11/29 06:03:34;;;;;;;48.53;14.17;;;;;;;5.42;100.00;101577.94;5230220;28;20040;-68
2022/11/29 06:06:29;;;;;;;42.40;13.60;;;;;;;5.47;100.00;101577.81;5221690;28;20877;-70
2022/11/29 06:09:11;;;;;;;66.13;15.53;;;;;;;5.35;100.00;101581.59;5232289;28;20032;-70
2022/11/29 06:11:49;;;;;;;42.30;15.23;;;;;;;5.37;100.00;101591.06;5229577;28;20099;-70
2022/11/29 06:14:36;;;;;;;26.73;16.60;;;;;;;5.42;100.00;101597.00;5231875;28;20136;-70
2022/11/29 06:17:14;;;;;;;31.53;16.80;;;;;;;5.54;100.00;101606.22;5236513;28;20052;-70
2022/11/29 06:20:18;;;;;;;25.97;18.10;;;;;;;5.65;100.00;101605.94;5231583;28;20060;-69
2022/11/29 06:23:00;;;;;;;37.63;16.70;;;;;;;5.61;100.00;101619.03;5237312;28;20168;-68
2022/11/29 06:26:15;;;;;;;32.20;15.57;;;;;;;5.63;100.00;101617.25;5234202;28;20025;-68
2022/11/29 06:29:19;;;;;;;25.37;15.93;;;;;;;5.67;100.00;101616.28;5222082;28;20071;-69
2022/11/29 06:32:01;;;;;;;21.17;15.13;;;;;;;5.61;100.00;101619.03;5245322;28;20095;-68
2022/11/29 06:34:40;;;;;;;23.67;15.33;;;;;;;5.62;100.00;101620.75;5234621;28;20032;-68
2022/11/29 06:37:22;;;;;;;21.10;15.70;;;;;;;5.67;100.00;101624.09;5235326;28;20690;-68
2022/11/29 06:39:54;;;;;;;22.90;15.80;;;;;;;5.64;100.00;101630.19;5227309;28;20044;-68
2022/11/29 06:42:25;;;;;;;22.33;15.70;;;;;;;5.64;100.00;101645.78;5230059;28;20473;-69
2022/11/29 06:44:56;;;;;;;30.93;17.37;;;;;;;5.63;100.00;101638.91;5235933;28;20040;-69
2022/11/29 06:47:35;;;;;;;24.17;16.33;;;;;;;5.71;100.00;101649.06;5232412;28;20040;-68
2022/11/29 06:50:31;;;;;;;22.40;16.60;;;;;;;5.70;100.00;101650.00;5232721;28;20067;-68
2022/11/29 06:53:23;;;;;;;23.93;15.73;;;;;;;5.73;100.00;101644.69;5235583;28;20361;-68
2022/11/29 06:56:54;;;;;;;25.70;15.20;;;;;;;5.75;100.00;101652.44;5234821;28;20123;-68
2022/11/29 07:00:10;;;;;;;23.60;16.43;;;;;;;5.83;100.00;101655.69;5155120;28;20035;-69
2022/11/29 07:02:56;;;;;;;;;;;;;;;5.88;100.00;101653.00;5206308;28;20353;-69
2022/11/29 07:05:29;;;;;;;24.30;16.03;;;;;;;5.76;100.00;101660.22;5232553;28;20302;-68
2022/11/29 07:08:14;;;;;;;20.93;15.83;;;;;;;5.81;100.00;101666.13;5235867;28;20484;-70
2022/11/29 07:10:48;;;;;;;21.90;15.63;;;;;;;5.78;100.00;101663.63;5230169;28;20077;-70
2022/11/29 07:13:20;;;;;;;20.85;15.65;;;;;;;5.80;100.00;101667.03;5234408;28;20049;-70
2022/11/29 07:16:16;;;;;;;22.67;16.20;;;;;;;5.85;100.00;101679.91;5234227;28;20033;-69
2022/11/29 07:18:47;;;;;;;;;;;;;;;5.93;100.00;101671.94;5229992;28;20029;-70
2022/11/29 07:21:44;;;;;;;25.50;16.13;;;;;;;5.85;100.00;101676.47;5233061;28;20368;-70
2022/11/29 07:24:43;;;;;;;21.13;17.40;;;;;;;5.85;100.00;101682.50;5234666;28;20017;-69
2022/11/29 07:27:41;;;;;;;21.97;17.53;;;;;;;5.84;100.00;101688.63;5228987;28;20029;-70
2022/11/29 07:30:18;;;;;;;25.30;17.93;;;;;;;5.85;100.00;101692.91;5229753;28;20553;-70
2022/11/29 07:33:22;;;;;;;25.87;17.07;;;;;;;5.88;100.00;101694.59;5236631;28;20037;-71
2022/11/29 07:35:56;;;;;;;24.07;17.63;;;;;;;5.87;100.00;101692.88;5228351;28;20040;-69
2022/11/29 07:38:45;;;;;;;25.00;16.02;;;;;;;5.83;100.00;101701.66;5232677;28;20562;-69
2022/11/29 07:41:28;;;;;;;31.93;17.23;;;;;;;5.74;100.00;101702.75;5234097;28;20040;-70
2022/11/29 07:44:06;;;;;;;30.97;18.07;;;;;;;5.84;100.00;101711.16;5234528;28;20018;-69
2022/11/29 07:46:37;;;;;;;34.03;18.73;;;;;;;5.84;100.00;101716.34;5229096;28;20037;-69
2022/11/29 07:49:10;;;;;;;37.80;20.23;;;;;;;5.83;100.00;101718.09;5225485;28;20017;-70
2022/11/29 07:51:41;;;;;;;35.73;19.07;;;;;;;5.84;100.00;101713.75;5233408;28;20479;-70
2022/11/29 07:54:16;;;;;;;32.70;19.33;;;;;;;5.85;100.00;101713.72;5234120;28;20033;-69
2022/11/29 07:56:47;;;;;;;29.77;20.10;;;;;;;5.89;100.00;101711.88;5231077;28;20021;-69
2022/11/29 07:59:19;;;;;;;32.77;19.00;;;;;;;5.86;100.00;101714.56;5234500;28;20033;-68
2022/11/29 08:01:50;;;;;;;41.73;19.53;;;;;;;5.83;100.00;101717.25;5229302;28;20068;-70
2022/11/29 08:04:21;;;;;;;37.53;18.07;;;;;;;5.87;100.00;101713.66;5225408;28;20713;-69
2022/11/29 08:06:53;;;;;;;35.63;17.10;;;;;;;5.75;100.00;101696.66;5230603;28;20038;-69
2022/11/29 08:09:24;;;;;;;39.63;19.73;;;;;;;5.88;100.00;101720.59;5234454;28;20065;-69
2022/11/29 08:11:55;;;;;;;37.90;19.10;;;;;;;5.88;100.00;101724.03;5232938;28;20037;-69
2022/11/29 08:14:31;;;;;;;36.20;17.33;;;;;;;5.85;100.00;101723.28;5227775;28;20119;-69
2022/11/29 08:17:02;;;;;;;37.33;18.90;;;;;;;5.74;100.00;101721.78;5226643;28;20026;-69
2022/11/29 08:19:34;;;;;;;42.87;18.13;;;;;;;5.81;100.00;101725.94;5228002;28;20087;-69
2022/11/29 08:22:05;;;;;;;43.87;19.13;;;;;;;5.80;100.00;101731.16;5229394;28;20053;-69
2022/11/29 08:24:36;;;;;;;48.73;19.40;;;;;;;5.79;100.00;101735.53;5231132;28;20025;-69
2022/11/29 08:27:07;;;;;;;42.77;19.73;;;;;;;5.78;100.00;101730.34;5226970;28;20033;-70
2022/11/29 08:29:39;;;;;;;34.90;18.70;;;;;;;5.85;100.00;101725.88;5229903;28;20447;-70
2022/11/29 08:32:10;;;;;;;34.87;18.70;;;;;;;5.85;100.00;101731.06;5230405;28;20044;-69
2022/11/29 08:34:41;;;;;;;44.77;20.20;;;;;;;5.67;100.00;101715.06;5233582;28;20120;-69
2022/11/29 08:37:12;;;;;;;44.47;19.80;;;;;;;5.81;100.00;101740.69;5233906;28;20034;-69
2022/11/29 08:39:44;;;;;;;40.43;20.27;;;;;;;5.83;100.00;101744.09;5233745;28;20028;-69
2022/11/29 08:42:15;;;;;;;44.30;20.10;;;;;;;5.75;100.00;101735.63;5233475;28;20026;-69
2022/11/29 08:44:46;;;;;;;45.60;20.47;;;;;;;5.77;100.00;101741.66;5233924;28;20037;-69
2022/11/29 08:47:35;;;;;;;43.27;20.70;;;;;;;5.84;100.00;101744.94;5232175;28;20037;-69
2022/11/29 08:50:15;;;;;;;42.37;20.83;;;;;;;5.83;100.00;101756.25;5233514;28;20483;-69
2022/11/29 08:55:41;;;;;;;43.37;20.80;;;;;;;5.88;100.00;101757.00;5233002;28;20060;-69
2022/11/29 08:58:14;;;;;;;47.83;20.90;;;;;;;5.91;100.00;101751.72;5233705;28;20083;-69
2022/11/29 09:00:45;;;;;;;43.63;21.20;;;;;;;5.90;100.00;101756.03;5233941;28;20076;-70
2022/11/29 09:06:20;;;;;;;43.70;22.77;;;;;;;6.00;100.00;101759.28;5209265;28;20121;-69
2022/11/29 09:08:56;;;;;;;42.63;22.20;;;;;;;6.04;100.00;101758.28;5232869;28;20475;-70
2022/11/29 09:11:28;;;;;;;52.40;21.87;;;;;;;6.03;100.00;101764.41;5232529;28;20248;-69
2022/11/29 09:14:03;;;;;;;46.87;24.00;;;;;;;6.05;100.00;101770.47;5233186;28;20038;-69
2022/11/29 09:16:37;;;;;;;51.65;23.50;;;;;;;6.08;100.00;101764.31;5232535;28;20075;-68
2022/11/29 09:19:09;;;;;;;83.45;22.25;;;;;;;6.00;100.00;101756.69;5225909;28;20021;-68
2022/11/29 09:21:40;;;;;;;73.10;23.47;;;;;;;5.98;100.00;101750.66;5232822;28;20627;-69
2022/11/29 09:24:12;;;;;;;83.97;24.07;;;;;;;6.08;100.00;101776.44;5232503;28;20067;-70
2022/11/29 09:26:47;;;;;;;65.03;24.90;;;;;;;6.12;100.00;101775.47;5231661;28;20030;-71
2022/11/29 09:29:18;;;;;;;75.60;24.60;;;;;;;6.10;100.00;101787.66;5232549;28;20030;-69
2022/11/29 09:31:49;;;;;;;68.90;26.00;;;;;;;6.12;100.00;101780.69;5232079;28;20041;-69
2022/11/29 09:34:20;;;;;;;57.97;25.20;;;;;;;6.20;100.00;101790.88;5232664;28;20065;-69
2022/11/29 09:36:52;;;;;;;80.17;24.07;;;;;;;6.16;100.00;101793.56;5232541;28;20056;-70
2022/11/29 09:39:23;;;;;;;65.37;25.37;;;;;;;6.26;100.00;101793.34;5232201;28;20029;-70
2022/11/29 09:42:21;;;;;;;87.67;26.53;;;;;;;6.33;100.00;101799.22;5231192;28;20075;-70
2022/11/29 09:45:09;;;;;;;59.93;24.50;;;;;;;6.37;100.00;101803.47;5231476;28;20044;-70
2022/11/29 09:48:06;;;;;;;55.40;25.27;;;;;;;6.39;100.00;101799.91;5231777;28;20032;-70
2022/11/29 09:50:50;;;;;;;60.07;25.23;;;;;;;6.41;100.00;101812.88;5231767;28;20026;-70
2022/11/29 09:53:33;;;;;;;73.90;26.43;;;;;;;6.43;100.00;101805.88;5231120;28;20021;-70
2022/11/29 09:56:26;;;;;;;67.27;27.33;;;;;;;6.49;100.00;101810.91;5230737;28;20030;-70
2022/11/29 09:59:03;;;;;;;96.50;27.37;;;;;;;6.43;100.00;101816.31;5232532;28;20084;-70
2022/11/29 10:01:43;;;;;;;59.80;23.83;;;;;;;6.46;100.00;101816.22;5229818;28;20037;-72
2022/11/29 10:04:22;;;;;;;63.37;21.23;;;;;;;6.39;100.00;101820.72;5222673;28;20037;-70
2022/11/29 10:06:57;;;;;;;48.73;20.57;;;;;;;6.45;100.00;101824.06;5231536;28;20037;-70
2022/11/29 10:09:37;;;;;;;55.97;21.70;;;;;;;6.48;100.00;101819.63;5231594;28;20033;-70
2022/11/29 10:12:27;;;;;;;43.33;20.93;;;;;;;6.52;100.00;101817.81;5243366;28;20377;-70
2022/11/29 10:15:08;;;;;;;53.77;20.57;;;;;;;6.58;100.00;101820.22;5232330;28;20709;-70
2022/11/29 10:17:43;;;;;;;46.30;22.00;;;;;;;6.62;100.00;101819.25;5230981;28;20640;-70
2022/11/29 10:20:18;;;;;;;58.55;20.27;;;;;;;6.56;100.00;101806.44;5231579;28;20038;-70
2022/11/29 10:23:11;;;;;;;41.70;21.27;;;;;;;6.70;100.00;101815.59;5231428;28;20091;-70
2022/11/29 10:25:48;;;;;;;35.33;18.97;;;;;;;6.73;100.00;101813.75;5234459;28;20034;-69
2022/11/29 10:28:22;;;;;;;66.80;18.63;;;;;;;6.62;100.00;101808.00;5230872;28;20059;-70
2022/11/29 10:30:55;;;;;;;70.43;19.63;;;;;;;6.65;100.00;101810.50;5231844;28;20083;-70
2022/11/29 10:33:33;;;;;;;58.17;22.27;;;;;;;6.76;100.00;101808.47;5230525;28;20029;-70
2022/11/29 10:36:28;;;;;;;41.37;19.13;;;;;;;6.83;100.00;101808.28;5230504;28;20017;-70
2022/11/29 10:39:12;;;;;;;61.03;20.97;;;;;;;6.71;100.00;101809.47;5202136;28;20041;-70
2022/11/29 10:41:44;;;;;;;59.50;21.23;;;;;;;6.64;100.00;101803.59;5223898;28;20068;-70
2022/11/29 10:44:15;;;;;;;33.40;19.27;;;;;;;6.80;100.00;101808.38;5230765;28;20644;-70
2022/11/29 10:46:46;;;;;;;40.43;19.97;;;;;;;6.80;100.00;101808.38;5231189;28;20478;-70
2022/11/29 10:49:22;;;;;;;38.90;19.70;;;;;;;6.85;100.00;101811.69;5229782;28;20049;-70
2022/11/29 10:51:53;;;;;;;55.70;20.07;;;;;;;6.76;100.00;101815.41;5222335;28;20026;-70
2022/11/29 10:54:37;;;;;;;54.37;20.37;;;;;;;6.81;100.00;101807.50;5230622;28;20404;-70
2022/11/29 10:57:17;;;;;;;45.57;22.43;;;;;;;6.87;100.00;101817.72;5230411;28;20025;-70
2022/11/29 11:00:09;;;;;;;93.50;22.30;;;;;;;6.78;100.00;101817.09;5232143;28;20060;-70
2022/11/29 11:02:40;;;;;;;49.87;19.60;;;;;;;6.74;100.00;101817.19;5229843;28;20555;-70
2022/11/29 11:05:18;;;;;;;36.20;18.93;;;;;;;6.76;100.00;101818.03;5230412;28;20116;-70
2022/11/29 11:07:56;;;;;;;37.93;19.23;;;;;;;6.76;100.00;101815.41;5233947;28;20063;-70
2022/11/29 11:10:29;;;;;;;42.83;19.40;;;;;;;6.86;100.00;101821.25;5234806;28;20038;-70
2022/11/29 11:13:06;;;;;;;36.00;20.00;;;;;;;6.84;100.00;101810.00;5235941;28;20033;-69
2022/11/29 11:15:38;;;;;;;48.97;21.50;;;;;;;6.87;100.00;101813.38;5233291;28;20121;-69
2022/11/29 11:18:23;;;;;;;73.77;20.97;;;;;;;6.83;100.00;101810.88;5234343;28;20108;-69
2022/11/29 11:21:00;;;;;;;69.18;19.80;;;;;;;6.75;100.00;101817.19;5235178;28;20040;-70
2022/11/29 11:23:35;;;;;;;49.13;20.50;;;;;;;6.84;100.00;101812.59;5235219;28;20140;-70
2022/11/29 11:26:10;;;;;;;40.00;20.80;;;;;;;6.94;100.00;101816.66;5234508;28;20023;-70
2022/11/29 11:28:48;;;;;;;88.15;21.13;;;;;;;6.83;100.00;101819.56;5235615;28;20029;-70
2022/11/29 11:31:33;;;;;;;38.93;20.70;;;;;;;6.93;100.00;101825.34;5233625;28;20021;-70
2022/11/29 11:34:30;;;;;;;52.47;21.80;;;;;;;7.04;100.00;101826.78;5234927;28;20036;-70
2022/11/29 11:37:13;;;;;;;59.27;19.97;;;;;;;7.04;100.00;101826.78;5225262;28;20438;-70
2022/11/29 11:39:47;;;;;;;39.23;21.87;;;;;;;7.02;100.00;101827.69;5240119;28;20075;-69
2022/11/29 11:42:39;;;;;;;48.92;22.08;;;;;;;6.91;100.00;101821.97;5235110;28;20029;-70
2022/11/29 11:45:10;;;;;;;41.07;21.23;;;;;;;7.03;100.00;101825.97;5232291;28;20033;-70
2022/11/29 11:47:53;;;;;;;34.50;20.67;;;;;;;7.09;100.00;101830.97;5227273;28;20407;-69
2022/11/29 11:50:36;;;;;;;52.13;23.67;;;;;;;7.07;100.00;101831.94;5222251;28;20040;-69
2022/11/29 11:53:29;;;;;;;40.00;22.60;;;;;;;7.13;100.00;101832.59;5233999;28;20017;-70
2022/11/29 11:56:07;;;;;;;41.90;21.20;;;;;;;7.06;100.00;101832.81;5239138;28;20807;-70
2022/11/29 11:58:41;;;;;;;47.90;22.10;;;;;;;7.12;100.00;101835.25;5236883;28;20500;-69
2022/11/29 12:01:37;;;;;;;35.47;21.65;;;;;;;7.16;100.00;101842.06;5233674;28;20556;-70
2022/11/29 12:04:29;;;;;;;36.57;21.50;;;;;;;7.16;100.00;101847.28;5233861;28;20025;-70
2022/11/29 12:07:09;;;;;;;45.00;22.37;;;;;;;7.05;100.00;101859.78;5232972;28;20029;-70
2022/11/29 12:09:45;;;;;;;40.93;21.53;;;;;;;7.06;100.00;101870.16;5234479;28;20031;-69
2022/11/29 12:12:22;;;;;;;42.60;22.60;;;;;;;7.14;100.00;101864.69;5234048;28;20040;-70
2022/11/29 12:15:16;;;;;;;43.97;22.13;;;;;;;7.21;100.00;101870.63;5234702;28;21057;-70
2022/11/29 12:17:54;;;;;;;36.83;21.90;;;;;;;7.19;100.00;101864.59;5236644;28;20025;-70